Terminal Aerodrome Forecast
Issued by NWS

Home | Current Version | Previous Version | Text Only | Print | Product List | Glossary On
Versions: 1 2 3 4 5 6 7 8 9 10 11 12 13 14 15 16 17 18 19
000
FTUS45 KBOU 231454 AAA
TAFBJC
TAF AMD
KBJC 231454Z 2315/2412 VRB05KT P6SM FEW140 SCT220
     FM231900 32008KT P6SM FEW120 SCT220
     FM240200 21010KT P6SM FEW120 BKN200
     FM240900 VRB05KT P6SM FEW100 BKN200=

USA.gov is the U.S. government's official web portal to all federal, state and local government web resources and services.